CES1269 ZGSZ-ZSPD
Flight info
| Callsign | CES1269 |
|---|---|
| Flight time | 1h 43m |
| Altitude | 33100 |
| Route | IDUMA9WD IDUMA W22 SHL G471 PLT A599 ELNEX G204 SHZ W58 XSY |
| Aircraft | A320/M-SDE3FGHIRWY/LB1 |
Departure
| Time | 2026-04-11 07:49 |
|---|---|
| Airport | Shenzhen Bao'an International Airport (ZGSZ) |
Arrival
| Time | 2026-04-11 09:32 |
|---|---|
| Airport | Shanghai Pudong International Airport (ZSPD) |
| Time | Latitude | Longitude | Altitude | Speed | Heading |
|---|---|---|---|---|---|
| 2026-04-11 07:25 | 22.63489 | 113.80791 | 15 ft | 0 kts | 188° |
| 2026-04-11 07:36 | 22.63490 | 113.80791 | 15 ft | 0 kts | 188° |
| 2026-04-11 07:38 | 22.63495 | 113.80792 | 15 ft | 2 kts | 188° |
| 2026-04-11 07:39 | 22.63515 | 113.80795 | 16 ft | 3 kts | 185° |
| 2026-04-11 07:39 | 22.63535 | 113.80796 | 17 ft | 3 kts | 181° |
| 2026-04-11 07:39 | 22.63555 | 113.80796 | 16 ft | 3 kts | 169° |
| 2026-04-11 07:39 | 22.63573 | 113.80790 | 16 ft | 3 kts | 129° |
| 2026-04-11 07:40 | 22.63578 | 113.80782 | 18 ft | 1 kts | 64° |
| 2026-04-11 07:40 | 22.63578 | 113.80781 | 18 ft | 2 kts | 63° |
| 2026-04-11 07:40 | 22.63577 | 113.80781 | 18 ft | 0 kts | 63° |
| 2026-04-11 07:42 | 22.63579 | 113.80785 | 18 ft | 1 kts | 63° |
| 2026-04-11 07:42 | 22.63587 | 113.80802 | 16 ft | 5 kts | 63° |
| 2026-04-11 07:42 | 22.63611 | 113.80853 | 15 ft | 10 kts | 63° |
| 2026-04-11 07:43 | 22.63780 | 113.80820 | 16 ft | 19 kts | 333° |
| 2026-04-11 07:43 | 22.63907 | 113.80750 | 15 ft | 20 kts | 333° |
| 2026-04-11 07:43 | 22.64027 | 113.80684 | 15 ft | 18 kts | 333° |
| 2026-04-11 07:43 | 22.64143 | 113.80620 | 15 ft | 21 kts | 333° |
| 2026-04-11 07:44 | 22.64265 | 113.80552 | 15 ft | 21 kts | 332° |
| 2026-04-11 07:44 | 22.64409 | 113.80474 | 15 ft | 25 kts | 333° |
| 2026-04-11 07:44 | 22.64543 | 113.80400 | 15 ft | 15 kts | 334° |
| 2026-04-11 07:44 | 22.64621 | 113.80452 | 17 ft | 13 kts | 32° |
| 2026-04-11 07:45 | 22.64707 | 113.80416 | 15 ft | 16 kts | 332° |
| 2026-04-11 07:45 | 22.64817 | 113.80356 | 15 ft | 20 kts | 333° |
| 2026-04-11 07:45 | 22.64949 | 113.80283 | 15 ft | 20 kts | 333° |
| 2026-04-11 07:45 | 22.65046 | 113.80230 | 15 ft | 12 kts | 333° |
| 2026-04-11 07:46 | 22.65113 | 113.80192 | 15 ft | 11 kts | 333° |
| 2026-04-11 07:46 | 22.65134 | 113.80181 | 16 ft | 0 kts | 333° |
| 2026-04-11 07:47 | 22.65153 | 113.80171 | 15 ft | 6 kts | 333° |
| 2026-04-11 07:47 | 22.65203 | 113.80175 | 15 ft | 10 kts | 37° |
| 2026-04-11 07:47 | 22.65243 | 113.80253 | 15 ft | 14 kts | 62° |
| 2026-04-11 07:47 | 22.65254 | 113.80327 | 15 ft | 9 kts | 142° |
| 2026-04-11 07:48 | 22.65222 | 113.80350 | 15 ft | 2 kts | 152° |
| 2026-04-11 07:48 | 22.65095 | 113.80420 | 17 ft | 54 kts | 153° |
| 2026-04-11 07:48 | 22.64560 | 113.80713 | 17 ft | 115 kts | 153° |
| 2026-04-11 07:48 | 22.63701 | 113.81186 | 25 ft | 160 kts | 155° |
| 2026-04-11 07:49 | 22.62703 | 113.81754 | 635 ft | 161 kts | 155° |
| 2026-04-11 07:49 | 22.61711 | 113.82322 | 1301 ft | 163 kts | 157° |
| 2026-04-11 07:49 | 22.60651 | 113.82895 | 1641 ft | 180 kts | 157° |
| 2026-04-11 07:49 | 22.59871 | 113.83310 | 1775 ft | 197 kts | 157° |
| 2026-04-11 07:50 | 22.58122 | 113.84244 | 2304 ft | 224 kts | 157° |
| 2026-04-11 07:50 | 22.56701 | 113.85011 | 2975 ft | 231 kts | 157° |
| 2026-04-11 07:50 | 22.55247 | 113.85803 | 3714 ft | 235 kts | 158° |
| 2026-04-11 07:50 | 22.53776 | 113.86606 | 4427 ft | 240 kts | 159° |
| 2026-04-11 07:51 | 22.52778 | 113.87150 | 4850 ft | 243 kts | 159° |
| 2026-04-11 07:51 | 22.51347 | 113.88179 | 5474 ft | 257 kts | 137° |
| 2026-04-11 07:51 | 22.50505 | 113.89926 | 6138 ft | 274 kts | 104° |
| 2026-04-11 07:51 | 22.50651 | 113.92003 | 6760 ft | 286 kts | 70° |
| 2026-04-11 07:52 | 22.51518 | 113.93958 | 7446 ft | 289 kts | 63° |
| 2026-04-11 07:52 | 22.52458 | 113.95910 | 8175 ft | 292 kts | 63° |
| 2026-04-11 07:52 | 22.53407 | 113.97860 | 8888 ft | 294 kts | 62° |
| 2026-04-11 07:52 | 22.54526 | 113.99715 | 9588 ft | 297 kts | 46° |
| 2026-04-11 07:53 | 22.56081 | 114.01136 | 10196 ft | 298 kts | 28° |
| 2026-04-11 07:53 | 22.58052 | 114.02052 | 10426 ft | 313 kts | 9° |
| 2026-04-11 07:53 | 22.60273 | 114.02360 | 10570 ft | 332 kts | 0° |
| 2026-04-11 07:53 | 22.62622 | 114.02583 | 10698 ft | 355 kts | 1° |
| 2026-04-11 07:54 | 22.65158 | 114.02831 | 10810 ft | 376 kts | 1° |
| 2026-04-11 07:54 | 22.67838 | 114.03104 | 10932 ft | 396 kts | 1° |
| 2026-04-11 07:54 | 22.70621 | 114.03131 | 11203 ft | 403 kts | 349° |
| 2026-04-11 07:54 | 22.73325 | 114.02415 | 11671 ft | 400 kts | 334° |
| 2026-04-11 07:55 | 22.75924 | 114.01282 | 12197 ft | 403 kts | 333° |
| 2026-04-11 07:55 | 22.78527 | 114.00130 | 12721 ft | 407 kts | 333° |
| 2026-04-11 07:55 | 22.81156 | 113.98960 | 13203 ft | 410 kts | 332° |
| 2026-04-11 07:55 | 22.83809 | 113.97775 | 13696 ft | 414 kts | 332° |
| 2026-04-11 07:56 | 22.86481 | 113.96579 | 14161 ft | 416 kts | 332° |
| 2026-04-11 07:56 | 22.89158 | 113.95383 | 14644 ft | 418 kts | 332° |
| 2026-04-11 07:56 | 22.91833 | 113.94134 | 15086 ft | 419 kts | 330° |
| 2026-04-11 07:56 | 22.94477 | 113.92798 | 15518 ft | 420 kts | 328° |
| 2026-04-11 07:57 | 22.97111 | 113.91404 | 15947 ft | 422 kts | 328° |
| 2026-04-11 07:57 | 22.99745 | 113.89985 | 16375 ft | 424 kts | 327° |
| 2026-04-11 07:57 | 23.02401 | 113.88577 | 16800 ft | 427 kts | 330° |
| 2026-04-11 07:57 | 23.05277 | 113.87622 | 17203 ft | 440 kts | 344° |
| 2026-04-11 07:58 | 23.08373 | 113.87439 | 17602 ft | 453 kts | 359° |
| 2026-04-11 07:58 | 23.11501 | 113.88100 | 17971 ft | 466 kts | 14° |
| 2026-04-11 07:58 | 23.14462 | 113.89620 | 18288 ft | 477 kts | 29° |
| 2026-04-11 07:58 | 23.17128 | 113.91805 | 18606 ft | 482 kts | 35° |
| 2026-04-11 07:59 | 23.19756 | 113.94071 | 18934 ft | 483 kts | 35° |
| 2026-04-11 07:59 | 23.22397 | 113.96349 | 19253 ft | 485 kts | 35° |
| 2026-04-11 07:59 | 23.25046 | 113.98630 | 19578 ft | 487 kts | 35° |
| 2026-04-11 07:59 | 23.27705 | 114.00917 | 19910 ft | 488 kts | 35° |
| 2026-04-11 08:00 | 23.30378 | 114.03214 | 20232 ft | 490 kts | 35° |
| 2026-04-11 08:00 | 23.33060 | 114.05509 | 20525 ft | 492 kts | 35° |
| 2026-04-11 08:00 | 23.35755 | 114.07806 | 20822 ft | 493 kts | 34° |
| 2026-04-11 08:00 | 23.38460 | 114.10106 | 21126 ft | 494 kts | 34° |
| 2026-04-11 08:01 | 23.41171 | 114.12407 | 21418 ft | 496 kts | 34° |
| 2026-04-11 08:01 | 23.43894 | 114.14723 | 21697 ft | 497 kts | 34° |
| 2026-04-11 08:01 | 23.46623 | 114.17052 | 21977 ft | 499 kts | 35° |
| 2026-04-11 08:01 | 23.49363 | 114.19391 | 22242 ft | 501 kts | 34° |
| 2026-04-11 08:02 | 23.52076 | 114.21709 | 22476 ft | 502 kts | 35° |
| 2026-04-11 08:02 | 23.54824 | 114.24066 | 22724 ft | 504 kts | 34° |
| 2026-04-11 08:02 | 23.57585 | 114.26442 | 22964 ft | 506 kts | 35° |
| 2026-04-11 08:02 | 23.60348 | 114.28817 | 23217 ft | 507 kts | 35° |
| 2026-04-11 08:03 | 23.63124 | 114.31199 | 23435 ft | 508 kts | 35° |
| 2026-04-11 08:03 | 23.65909 | 114.33580 | 23618 ft | 509 kts | 34° |
| 2026-04-11 08:03 | 23.68728 | 114.35941 | 23800 ft | 511 kts | 34° |
| 2026-04-11 08:03 | 23.71104 | 114.37891 | 23963 ft | 511 kts | 33° |
| 2026-04-11 08:04 | 23.73962 | 114.40209 | 24160 ft | 512 kts | 33° |
| 2026-04-11 08:04 | 23.76829 | 114.42527 | 24353 ft | 513 kts | 33° |
| 2026-04-11 08:04 | 23.79698 | 114.44853 | 24538 ft | 514 kts | 33° |
| 2026-04-11 08:04 | 23.82563 | 114.47187 | 24726 ft | 515 kts | 33° |
| 2026-04-11 08:05 | 23.85438 | 114.49543 | 24913 ft | 517 kts | 34° |
| 2026-04-11 08:05 | 23.88308 | 114.51907 | 25101 ft | 518 kts | 34° |
| 2026-04-11 08:05 | 23.91189 | 114.54285 | 25282 ft | 519 kts | 34° |
| 2026-04-11 08:05 | 23.94073 | 114.56665 | 25496 ft | 520 kts | 34° |
| 2026-04-11 08:06 | 23.96960 | 114.59050 | 25770 ft | 519 kts | 34° |
| 2026-04-11 08:06 | 23.99835 | 114.61427 | 26049 ft | 518 kts | 34° |
| 2026-04-11 08:06 | 24.02671 | 114.63772 | 26322 ft | 517 kts | 34° |
| 2026-04-11 08:06 | 24.05317 | 114.65956 | 26581 ft | 517 kts | 34° |
| 2026-04-11 08:07 | 24.08186 | 114.68324 | 26862 ft | 516 kts | 34° |
| 2026-04-11 08:07 | 24.11046 | 114.70685 | 27149 ft | 515 kts | 34° |
| 2026-04-11 08:07 | 24.13909 | 114.73051 | 27441 ft | 515 kts | 34° |
| 2026-04-11 08:08 | 24.19619 | 114.77775 | 28055 ft | 514 kts | 34° |
| 2026-04-11 08:08 | 24.22469 | 114.80135 | 28360 ft | 513 kts | 34° |
| 2026-04-11 08:08 | 24.25337 | 114.82453 | 28650 ft | 511 kts | 30° |
| 2026-04-11 08:08 | 24.28409 | 114.84360 | 28947 ft | 506 kts | 21° |
| 2026-04-11 08:09 | 24.31671 | 114.85747 | 29262 ft | 500 kts | 12° |
| 2026-04-11 08:09 | 24.35031 | 114.86655 | 29574 ft | 496 kts | 8° |
| 2026-04-11 08:09 | 24.38397 | 114.87479 | 29892 ft | 496 kts | 8° |
| 2026-04-11 08:09 | 24.41766 | 114.88308 | 30177 ft | 496 kts | 8° |
| 2026-04-11 08:10 | 24.45130 | 114.89137 | 30470 ft | 495 kts | 8° |
| 2026-04-11 08:10 | 24.48485 | 114.89966 | 30757 ft | 493 kts | 8° |
| 2026-04-11 08:10 | 24.51821 | 114.90795 | 31037 ft | 492 kts | 8° |
| 2026-04-11 08:10 | 24.55156 | 114.91629 | 31312 ft | 491 kts | 8° |
| 2026-04-11 08:11 | 24.58484 | 114.92462 | 31604 ft | 490 kts | 8° |
| 2026-04-11 08:11 | 24.61804 | 114.93291 | 31901 ft | 489 kts | 8° |
| 2026-04-11 08:11 | 24.65119 | 114.94112 | 32222 ft | 487 kts | 8° |
| 2026-04-11 08:11 | 24.68418 | 114.94926 | 32546 ft | 486 kts | 8° |
| 2026-04-11 08:12 | 24.71713 | 114.95739 | 32818 ft | 485 kts | 8° |
| 2026-04-11 08:12 | 24.75009 | 114.96552 | 32883 ft | 488 kts | 8° |
| 2026-04-11 08:12 | 24.81620 | 114.98172 | 32881 ft | 491 kts | 8° |
| 2026-04-11 08:13 | 24.88341 | 114.99803 | 32878 ft | 492 kts | 8° |
| 2026-04-11 08:13 | 24.94976 | 115.01422 | 32876 ft | 492 kts | 8° |
| 2026-04-11 08:14 | 25.01663 | 115.03053 | 32867 ft | 492 kts | 8° |
| 2026-04-11 08:14 | 25.08353 | 115.04681 | 32861 ft | 492 kts | 8° |
| 2026-04-11 08:15 | 25.15042 | 115.06311 | 32849 ft | 492 kts | 8° |
| 2026-04-11 08:15 | 25.21735 | 115.07947 | 32850 ft | 493 kts | 8° |
| 2026-04-11 08:16 | 25.28430 | 115.09579 | 32848 ft | 492 kts | 5° |
| 2026-04-11 08:16 | 25.35139 | 115.09821 | 32847 ft | 477 kts | 346° |
| 2026-04-11 08:17 | 25.41391 | 115.07810 | 32841 ft | 463 kts | 329° |
| 2026-04-11 08:17 | 25.47232 | 115.04786 | 32835 ft | 463 kts | 329° |
| 2026-04-11 08:18 | 25.53085 | 115.01790 | 32833 ft | 464 kts | 329° |
| 2026-04-11 08:18 | 25.58910 | 114.98807 | 32832 ft | 464 kts | 329° |
| 2026-04-11 08:19 | 25.64771 | 114.95795 | 32830 ft | 464 kts | 329° |
| 2026-04-11 08:19 | 25.70627 | 114.92770 | 32828 ft | 465 kts | 329° |
| 2026-04-11 08:20 | 25.76876 | 114.90750 | 32824 ft | 482 kts | 352° |
| 2026-04-11 08:20 | 25.80258 | 114.90997 | 32822 ft | 493 kts | 6° |
| 2026-04-11 08:20 | 25.83545 | 114.92198 | 32819 ft | 504 kts | 22° |
| 2026-04-11 08:21 | 25.86503 | 114.94327 | 32815 ft | 512 kts | 38° |
| 2026-04-11 08:21 | 25.89024 | 114.97158 | 32807 ft | 516 kts | 44° |
| 2026-04-11 08:21 | 25.93917 | 115.02992 | 32805 ft | 517 kts | 44° |
| 2026-04-11 08:22 | 25.98836 | 115.08848 | 32806 ft | 518 kts | 44° |
| 2026-04-11 08:22 | 26.03765 | 115.14710 | 32815 ft | 519 kts | 44° |
| 2026-04-11 08:23 | 26.08700 | 115.20582 | 32815 ft | 520 kts | 44° |
| 2026-04-11 08:23 | 26.13643 | 115.26466 | 32823 ft | 521 kts | 44° |
| 2026-04-11 08:24 | 26.18586 | 115.32362 | 32818 ft | 521 kts | 44° |
| 2026-04-11 08:24 | 26.23527 | 115.38277 | 32818 ft | 522 kts | 44° |
| 2026-04-11 08:25 | 26.28466 | 115.44200 | 32826 ft | 522 kts | 44° |
| 2026-04-11 08:25 | 26.33410 | 115.50130 | 32824 ft | 522 kts | 44° |
| 2026-04-11 08:26 | 26.38350 | 115.56059 | 32821 ft | 522 kts | 44° |
| 2026-04-11 08:26 | 26.43261 | 115.61963 | 32823 ft | 522 kts | 44° |
| 2026-04-11 08:27 | 26.48204 | 115.67903 | 32827 ft | 523 kts | 44° |
| 2026-04-11 08:27 | 26.53144 | 115.73855 | 32836 ft | 523 kts | 44° |
| 2026-04-11 08:28 | 26.58087 | 115.79826 | 32821 ft | 523 kts | 44° |
| 2026-04-11 08:28 | 26.63030 | 115.85808 | 32837 ft | 524 kts | 44° |
| 2026-04-11 08:29 | 26.67974 | 115.91793 | 32838 ft | 524 kts | 44° |
| 2026-04-11 08:29 | 26.72923 | 115.97784 | 32827 ft | 524 kts | 44° |
| 2026-04-11 08:30 | 26.77869 | 116.03778 | 32826 ft | 525 kts | 44° |
| 2026-04-11 08:30 | 26.82812 | 116.09786 | 32830 ft | 525 kts | 44° |
| 2026-04-11 08:31 | 26.87756 | 116.15806 | 32827 ft | 525 kts | 44° |
| 2026-04-11 08:31 | 26.92693 | 116.21831 | 32825 ft | 525 kts | 44° |
| 2026-04-11 08:32 | 26.97656 | 116.27836 | 32829 ft | 525 kts | 43° |
| 2026-04-11 08:32 | 27.02642 | 116.33828 | 33022 ft | 523 kts | 43° |
| 2026-04-11 08:33 | 27.05102 | 116.36786 | 33645 ft | 515 kts | 44° |
| 2026-04-11 08:33 | 27.07521 | 116.39703 | 34207 ft | 506 kts | 44° |
| 2026-04-11 08:33 | 27.09893 | 116.42575 | 34763 ft | 498 kts | 44° |
| 2026-04-11 08:33 | 27.12244 | 116.45422 | 35039 ft | 497 kts | 43° |
| 2026-04-11 08:34 | 27.14594 | 116.48265 | 35276 ft | 496 kts | 43° |
| 2026-04-11 08:34 | 27.16938 | 116.51105 | 35515 ft | 496 kts | 43° |
| 2026-04-11 08:34 | 27.19279 | 116.53944 | 35739 ft | 496 kts | 43° |
| 2026-04-11 08:34 | 27.21633 | 116.56791 | 35827 ft | 499 kts | 43° |
| 2026-04-11 08:35 | 27.26480 | 116.62481 | 35844 ft | 508 kts | 41° |
| 2026-04-11 08:35 | 27.31474 | 116.68221 | 35850 ft | 518 kts | 41° |
| 2026-04-11 08:36 | 27.36511 | 116.74059 | 35843 ft | 521 kts | 42° |
| 2026-04-11 08:36 | 27.41502 | 116.79906 | 35846 ft | 522 kts | 42° |
| 2026-04-11 08:37 | 27.46529 | 116.85799 | 35854 ft | 522 kts | 42° |
| 2026-04-11 08:37 | 27.51561 | 116.91691 | 35856 ft | 522 kts | 42° |
| 2026-04-11 08:38 | 27.56616 | 116.97580 | 35861 ft | 522 kts | 41° |
| 2026-04-11 08:38 | 27.61694 | 117.03429 | 35863 ft | 522 kts | 41° |
| 2026-04-11 08:39 | 27.66777 | 117.09281 | 35869 ft | 522 kts | 41° |
| 2026-04-11 08:39 | 27.71845 | 117.15147 | 35872 ft | 522 kts | 41° |
| 2026-04-11 08:40 | 27.76052 | 117.20044 | 35875 ft | 522 kts | 41° |
| 2026-04-11 08:40 | 27.81118 | 117.25939 | 35875 ft | 523 kts | 41° |
| 2026-04-11 08:41 | 27.86187 | 117.31836 | 35871 ft | 523 kts | 41° |
| 2026-04-11 08:41 | 27.91252 | 117.37738 | 35869 ft | 523 kts | 41° |
| 2026-04-11 08:42 | 27.96307 | 117.43639 | 35882 ft | 523 kts | 41° |
| 2026-04-11 08:43 | 28.03908 | 117.52522 | 35887 ft | 523 kts | 41° |
| 2026-04-11 08:43 | 28.08966 | 117.58449 | 35889 ft | 524 kts | 41° |
| 2026-04-11 08:44 | 28.14020 | 117.64391 | 35885 ft | 524 kts | 41° |
| 2026-04-11 08:44 | 28.19071 | 117.70344 | 35882 ft | 525 kts | 41° |
| 2026-04-11 08:45 | 28.24095 | 117.76253 | 35877 ft | 524 kts | 41° |
| 2026-04-11 08:45 | 28.29156 | 117.82211 | 35874 ft | 524 kts | 41° |
| 2026-04-11 08:46 | 28.34217 | 117.88176 | 35870 ft | 525 kts | 41° |
| 2026-04-11 08:46 | 28.39272 | 117.94152 | 35870 ft | 525 kts | 41° |
| 2026-04-11 08:47 | 28.44318 | 118.00160 | 35870 ft | 526 kts | 42° |
| 2026-04-11 08:47 | 28.49286 | 118.06274 | 35873 ft | 527 kts | 43° |
| 2026-04-11 08:48 | 28.54227 | 118.12432 | 35873 ft | 527 kts | 43° |
| 2026-04-11 08:48 | 28.59190 | 118.18581 | 35872 ft | 528 kts | 43° |
| 2026-04-11 08:49 | 28.64172 | 118.24721 | 35875 ft | 528 kts | 43° |
| 2026-04-11 08:49 | 28.69157 | 118.30866 | 35875 ft | 529 kts | 43° |
| 2026-04-11 08:50 | 28.74146 | 118.37030 | 35875 ft | 529 kts | 43° |
| 2026-04-11 08:50 | 28.79126 | 118.43218 | 35876 ft | 530 kts | 43° |
| 2026-04-11 08:51 | 28.84111 | 118.49417 | 35881 ft | 531 kts | 43° |
| 2026-04-11 08:51 | 28.89107 | 118.55618 | 35879 ft | 531 kts | 43° |
| 2026-04-11 08:52 | 28.96600 | 118.64971 | 35891 ft | 532 kts | 43° |
| 2026-04-11 08:52 | 29.01566 | 118.71180 | 35895 ft | 533 kts | 43° |
| 2026-04-11 08:53 | 29.06564 | 118.77435 | 35900 ft | 533 kts | 43° |
| 2026-04-11 08:53 | 29.11570 | 118.83697 | 35909 ft | 535 kts | 42° |
| 2026-04-11 08:54 | 29.16587 | 118.89988 | 35889 ft | 535 kts | 42° |
| 2026-04-11 08:54 | 29.21587 | 118.96280 | 35890 ft | 535 kts | 42° |
| 2026-04-11 08:55 | 29.26609 | 119.02586 | 35907 ft | 536 kts | 42° |
| 2026-04-11 08:55 | 29.31626 | 119.08908 | 35911 ft | 536 kts | 42° |
| 2026-04-11 08:56 | 29.36639 | 119.15247 | 35921 ft | 537 kts | 42° |
| 2026-04-11 08:56 | 29.41647 | 119.21596 | 35926 ft | 537 kts | 42° |
| 2026-04-11 08:57 | 29.46650 | 119.27951 | 35933 ft | 537 kts | 42° |
| 2026-04-11 08:57 | 29.51652 | 119.34310 | 35931 ft | 537 kts | 42° |
| 2026-04-11 08:58 | 29.56656 | 119.40689 | 35945 ft | 538 kts | 43° |
| 2026-04-11 08:58 | 29.60764 | 119.47934 | 35939 ft | 549 kts | 64° |
| 2026-04-11 08:59 | 29.62041 | 119.52072 | 35941 ft | 551 kts | 75° |
| 2026-04-11 08:59 | 29.62740 | 119.56405 | 35941 ft | 552 kts | 85° |
| 2026-04-11 08:59 | 29.62747 | 119.65194 | 35939 ft | 551 kts | 94° |
| 2026-04-11 09:00 | 29.62541 | 119.74001 | 35937 ft | 551 kts | 93° |
| 2026-04-11 09:00 | 29.62373 | 119.82820 | 35942 ft | 552 kts | 93° |
| 2026-04-11 09:01 | 29.62200 | 119.91641 | 35951 ft | 552 kts | 93° |
| 2026-04-11 09:01 | 29.62103 | 119.96062 | 35760 ft | 554 kts | 93° |
| 2026-04-11 09:01 | 29.62002 | 120.00490 | 35355 ft | 554 kts | 93° |
| 2026-04-11 09:02 | 29.61898 | 120.04904 | 34941 ft | 553 kts | 93° |
| 2026-04-11 09:02 | 29.61792 | 120.09318 | 34522 ft | 553 kts | 93° |
| 2026-04-11 09:02 | 29.61683 | 120.13732 | 34117 ft | 553 kts | 93° |
| 2026-04-11 09:02 | 29.61572 | 120.18160 | 33690 ft | 554 kts | 93° |
| 2026-04-11 09:03 | 29.61464 | 120.22591 | 33235 ft | 555 kts | 93° |
| 2026-04-11 09:03 | 29.61358 | 120.27029 | 32778 ft | 556 kts | 93° |
| 2026-04-11 09:03 | 29.61256 | 120.31477 | 32330 ft | 557 kts | 93° |
| 2026-04-11 09:03 | 29.61155 | 120.35927 | 31901 ft | 559 kts | 93° |
| 2026-04-11 09:04 | 29.61053 | 120.40397 | 31464 ft | 560 kts | 93° |
| 2026-04-11 09:04 | 29.60948 | 120.44871 | 31044 ft | 560 kts | 94° |
| 2026-04-11 09:04 | 29.60840 | 120.49282 | 30633 ft | 560 kts | 94° |
| 2026-04-11 09:04 | 29.60728 | 120.53759 | 30220 ft | 561 kts | 94° |
| 2026-04-11 09:05 | 29.60614 | 120.58240 | 29787 ft | 561 kts | 94° |
| 2026-04-11 09:05 | 29.60499 | 120.62711 | 29302 ft | 558 kts | 94° |
| 2026-04-11 09:05 | 29.60387 | 120.67137 | 28836 ft | 550 kts | 94° |
| 2026-04-11 09:05 | 29.60274 | 120.71498 | 28375 ft | 541 kts | 94° |
| 2026-04-11 09:06 | 29.60199 | 120.75785 | 27912 ft | 533 kts | 89° |
| 2026-04-11 09:06 | 29.60636 | 120.80006 | 27454 ft | 525 kts | 77° |
| 2026-04-11 09:06 | 29.61716 | 120.83967 | 27023 ft | 515 kts | 64° |
| 2026-04-11 09:06 | 29.63380 | 120.87556 | 26576 ft | 503 kts | 53° |
| 2026-04-11 09:07 | 29.65304 | 120.90876 | 26130 ft | 496 kts | 53° |
| 2026-04-11 09:07 | 29.67204 | 120.94165 | 25690 ft | 491 kts | 53° |
| 2026-04-11 09:07 | 29.69076 | 120.97424 | 25252 ft | 485 kts | 53° |
| 2026-04-11 09:07 | 29.70921 | 121.00648 | 24830 ft | 480 kts | 53° |
| 2026-04-11 09:08 | 29.72744 | 121.03841 | 24403 ft | 475 kts | 53° |
| 2026-04-11 09:08 | 29.74549 | 121.07000 | 23987 ft | 470 kts | 53° |
| 2026-04-11 09:08 | 29.76333 | 121.10121 | 23577 ft | 465 kts | 53° |
| 2026-04-11 09:08 | 29.78076 | 121.13175 | 23114 ft | 459 kts | 53° |
| 2026-04-11 09:09 | 29.79818 | 121.16231 | 22610 ft | 453 kts | 53° |
| 2026-04-11 09:09 | 29.81536 | 121.19255 | 22131 ft | 449 kts | 53° |
| 2026-04-11 09:09 | 29.83239 | 121.22251 | 21662 ft | 446 kts | 53° |
| 2026-04-11 09:09 | 29.84930 | 121.25227 | 21194 ft | 442 kts | 53° |
| 2026-04-11 09:10 | 29.86607 | 121.28170 | 20732 ft | 438 kts | 53° |
| 2026-04-11 09:10 | 29.88410 | 121.30963 | 20281 ft | 431 kts | 44° |
| 2026-04-11 09:10 | 29.90511 | 121.33375 | 19831 ft | 423 kts | 35° |
| 2026-04-11 09:10 | 29.92843 | 121.35379 | 19401 ft | 415 kts | 26° |
| 2026-04-11 09:11 | 29.95331 | 121.37003 | 18969 ft | 409 kts | 22° |
| 2026-04-11 09:11 | 29.97829 | 121.38563 | 18545 ft | 407 kts | 22° |
| 2026-04-11 09:11 | 30.00307 | 121.40115 | 18118 ft | 405 kts | 22° |
| 2026-04-11 09:11 | 30.02777 | 121.41663 | 17623 ft | 403 kts | 22° |
| 2026-04-11 09:12 | 30.05236 | 121.43208 | 17147 ft | 401 kts | 23° |
| 2026-04-11 09:12 | 30.07676 | 121.44757 | 16678 ft | 400 kts | 24° |
| 2026-04-11 09:12 | 30.10076 | 121.46289 | 16223 ft | 399 kts | 24° |
| 2026-04-11 09:12 | 30.12506 | 121.47829 | 15782 ft | 399 kts | 23° |
| 2026-04-11 09:13 | 30.14951 | 121.49368 | 15322 ft | 400 kts | 24° |
| 2026-04-11 09:13 | 30.17432 | 121.50921 | 14862 ft | 400 kts | 24° |
| 2026-04-11 09:13 | 30.19839 | 121.52428 | 14435 ft | 398 kts | 24° |
| 2026-04-11 09:13 | 30.22262 | 121.53951 | 14009 ft | 396 kts | 24° |
| 2026-04-11 09:14 | 30.24676 | 121.55470 | 13555 ft | 393 kts | 25° |
| 2026-04-11 09:14 | 30.27073 | 121.56978 | 13078 ft | 391 kts | 25° |
| 2026-04-11 09:14 | 30.29452 | 121.58477 | 12598 ft | 388 kts | 25° |
| 2026-04-11 09:14 | 30.31815 | 121.59966 | 12165 ft | 384 kts | 25° |
| 2026-04-11 09:15 | 30.34139 | 121.61430 | 11898 ft | 376 kts | 26° |
| 2026-04-11 09:15 | 30.36406 | 121.62861 | 11657 ft | 367 kts | 26° |
| 2026-04-11 09:15 | 30.38622 | 121.64258 | 11429 ft | 359 kts | 26° |
| 2026-04-11 09:15 | 30.40771 | 121.65615 | 11409 ft | 344 kts | 26° |
| 2026-04-11 09:16 | 30.42872 | 121.66941 | 11418 ft | 353 kts | 26° |
| 2026-04-11 09:16 | 30.45067 | 121.68321 | 11420 ft | 362 kts | 26° |
| 2026-04-11 09:16 | 30.47283 | 121.69718 | 11422 ft | 363 kts | 27° |
| 2026-04-11 09:16 | 30.49500 | 121.71121 | 11399 ft | 363 kts | 27° |
| 2026-04-11 09:17 | 30.51702 | 121.72518 | 11158 ft | 357 kts | 27° |
| 2026-04-11 09:17 | 30.53855 | 121.73884 | 10921 ft | 349 kts | 27° |
| 2026-04-11 09:17 | 30.56043 | 121.75024 | 10684 ft | 340 kts | 16° |
| 2026-04-11 09:17 | 30.58285 | 121.75768 | 10493 ft | 331 kts | 14° |
| 2026-04-11 09:18 | 30.60475 | 121.76487 | 10308 ft | 323 kts | 15° |
| 2026-04-11 09:18 | 30.62614 | 121.77197 | 10119 ft | 316 kts | 15° |
| 2026-04-11 09:18 | 30.64709 | 121.77893 | 9932 ft | 311 kts | 15° |
| 2026-04-11 09:18 | 30.66783 | 121.78578 | 9744 ft | 309 kts | 15° |
| 2026-04-11 09:19 | 30.68846 | 121.79259 | 9533 ft | 307 kts | 16° |
| 2026-04-11 09:19 | 30.70890 | 121.79935 | 9330 ft | 305 kts | 16° |
| 2026-04-11 09:19 | 30.72924 | 121.80608 | 9103 ft | 302 kts | 17° |
| 2026-04-11 09:19 | 30.74923 | 121.81269 | 8849 ft | 296 kts | 17° |
| 2026-04-11 09:20 | 30.76880 | 121.81916 | 8601 ft | 290 kts | 18° |
| 2026-04-11 09:20 | 30.78800 | 121.82553 | 8350 ft | 284 kts | 18° |
| 2026-04-11 09:20 | 30.80679 | 121.83176 | 8105 ft | 279 kts | 18° |
| 2026-04-11 09:20 | 30.82527 | 121.83788 | 7863 ft | 273 kts | 19° |
| 2026-04-11 09:21 | 30.84337 | 121.84389 | 7617 ft | 268 kts | 19° |
| 2026-04-11 09:21 | 30.86111 | 121.84979 | 7375 ft | 262 kts | 19° |
| 2026-04-11 09:21 | 30.87851 | 121.85559 | 7110 ft | 258 kts | 19° |
| 2026-04-11 09:21 | 30.88986 | 121.85936 | 6946 ft | 255 kts | 19° |
| 2026-04-11 09:22 | 30.91298 | 121.86333 | 6592 ft | 253 kts | 2° |
| 2026-04-11 09:22 | 30.93032 | 121.86089 | 6328 ft | 251 kts | 350° |
| 2026-04-11 09:22 | 30.94676 | 121.85404 | 6050 ft | 251 kts | 337° |
| 2026-04-11 09:22 | 30.96156 | 121.84301 | 5789 ft | 262 kts | 324° |
| 2026-04-11 09:23 | 30.97562 | 121.82882 | 5551 ft | 270 kts | 322° |
| 2026-04-11 09:23 | 30.98985 | 121.81436 | 5301 ft | 272 kts | 322° |
| 2026-04-11 09:23 | 31.00411 | 121.79989 | 5053 ft | 272 kts | 322° |
| 2026-04-11 09:23 | 31.01838 | 121.78539 | 4809 ft | 272 kts | 322° |
| 2026-04-11 09:24 | 31.03262 | 121.77091 | 4562 ft | 271 kts | 322° |
| 2026-04-11 09:24 | 31.04681 | 121.75646 | 4304 ft | 271 kts | 322° |
| 2026-04-11 09:24 | 31.06100 | 121.74202 | 4051 ft | 271 kts | 322° |
| 2026-04-11 09:24 | 31.07519 | 121.72757 | 3931 ft | 271 kts | 321° |
| 2026-04-11 09:25 | 31.08938 | 121.71312 | 3935 ft | 271 kts | 322° |
| 2026-04-11 09:25 | 31.10362 | 121.69862 | 3935 ft | 272 kts | 322° |
| 2026-04-11 09:25 | 31.11816 | 121.68461 | 3932 ft | 270 kts | 331° |
| 2026-04-11 09:25 | 31.13513 | 121.67626 | 3933 ft | 263 kts | 353° |
| 2026-04-11 09:26 | 31.15307 | 121.67546 | 3935 ft | 256 kts | 13° |
| 2026-04-11 09:26 | 31.17065 | 121.67848 | 3938 ft | 256 kts | 13° |
| 2026-04-11 09:26 | 31.18756 | 121.68138 | 3930 ft | 247 kts | 13° |
| 2026-04-11 09:26 | 31.20425 | 121.68498 | 3888 ft | 228 kts | 24° |
| 2026-04-11 09:27 | 31.21884 | 121.69144 | 3635 ft | 222 kts | 27° |
| 2026-04-11 09:27 | 31.23315 | 121.69796 | 3389 ft | 220 kts | 27° |
| 2026-04-11 09:27 | 31.24260 | 121.70229 | 3225 ft | 219 kts | 27° |
| 2026-04-11 09:27 | 31.25679 | 121.70876 | 2951 ft | 219 kts | 26° |
| 2026-04-11 09:28 | 31.27097 | 121.71523 | 2672 ft | 219 kts | 26° |
| 2026-04-11 09:28 | 31.28499 | 121.72196 | 2420 ft | 215 kts | 34° |
| 2026-04-11 09:28 | 31.29413 | 121.73417 | 2230 ft | 195 kts | 79° |
| 2026-04-11 09:28 | 31.29256 | 121.74872 | 2100 ft | 180 kts | 126° |
| 2026-04-11 09:29 | 31.28215 | 121.75586 | 2027 ft | 182 kts | 175° |
| 2026-04-11 09:29 | 31.26966 | 121.75280 | 2046 ft | 188 kts | 189° |
| 2026-04-11 09:29 | 31.25721 | 121.74999 | 2033 ft | 174 kts | 178° |
| 2026-04-11 09:29 | 31.24561 | 121.75096 | 1889 ft | 162 kts | 166° |
| 2026-04-11 09:30 | 31.23500 | 121.75379 | 1704 ft | 151 kts | 162° |
| 2026-04-11 09:30 | 31.22532 | 121.75701 | 1522 ft | 138 kts | 161° |
| 2026-04-11 09:30 | 31.21632 | 121.76023 | 1334 ft | 133 kts | 160° |
| 2026-04-11 09:30 | 31.20764 | 121.76343 | 1159 ft | 130 kts | 160° |
| 2026-04-11 09:31 | 31.19911 | 121.76661 | 1001 ft | 129 kts | 159° |
| 2026-04-11 09:31 | 31.19050 | 121.76971 | 787 ft | 130 kts | 159° |
| 2026-04-11 09:31 | 31.18188 | 121.77310 | 579 ft | 129 kts | 158° |
| 2026-04-11 09:31 | 31.17324 | 121.77636 | 420 ft | 130 kts | 163° |
| 2026-04-11 09:32 | 31.16457 | 121.77977 | 264 ft | 134 kts | 162° |
| 2026-04-11 09:32 | 31.15579 | 121.78298 | 84 ft | 132 kts | 162° |
| 2026-04-11 09:32 | 31.14760 | 121.78607 | 21 ft | 100 kts | 162° |
| 2026-04-11 09:32 | 31.14389 | 121.78748 | 23 ft | 12 kts | 162° |
| 2026-04-11 09:33 | 31.14318 | 121.78774 | 22 ft | 11 kts | 162° |
| 2026-04-11 09:33 | 31.14311 | 121.78777 | 22 ft | 0 kts | 162° |